createdAt,value
2023-11-01T00:00:07.426Z,10.40
2023-11-01T00:02:42.549Z,10.37
2023-11-01T00:05:12.127Z,10.36
2023-11-01T00:07:40.750Z,10.38
2023-11-01T00:10:11.343Z,10.38
2023-11-01T00:12:39.972Z,10.36
2023-11-01T00:15:10.019Z,10.34
2023-11-01T00:17:38.686Z,10.30
2023-11-01T00:20:08.903Z,10.28
2023-11-01T00:22:37.600Z,10.26
2023-11-01T00:25:06.974Z,10.22
2023-11-01T00:27:37.047Z,10.21
2023-11-01T00:30:06.417Z,10.18
2023-11-01T00:32:35.105Z,10.15
2023-11-01T00:35:04.480Z,10.12
2023-11-01T00:37:33.031Z,10.11
2023-11-01T00:40:01.592Z,10.09
2023-11-01T00:42:30.409Z,10.10
2023-11-01T00:45:00.438Z,10.11
2023-11-01T00:47:30.661Z,10.12
2023-11-01T00:49:59.278Z,10.11
2023-11-01T00:52:28.213Z,10.12
2023-11-01T00:54:56.729Z,10.10
2023-11-01T00:57:25.464Z,10.10
2023-11-01T00:59:54.364Z,10.09
2023-11-01T01:02:24.441Z,10.08
2023-11-01T01:04:53.254Z,10.09
2023-11-01T01:07:21.995Z,10.10
2023-11-01T01:09:51.396Z,10.07
2023-11-01T01:12:20.055Z,10.11
2023-11-01T01:14:48.564Z,10.06
2023-11-01T01:17:17.178Z,10.08
2023-11-01T01:19:48.920Z,10.06
2023-11-01T01:22:17.464Z,10.06
2023-11-01T01:24:46.120Z,10.05
2023-11-01T01:27:14.803Z,10.06
2023-11-01T01:29:43.401Z,10.10
2023-11-01T01:32:11.994Z,10.09
2023-11-01T01:34:40.626Z,10.13
2023-11-01T01:37:10.763Z,10.13
2023-11-01T01:39:39.405Z,10.13
2023-11-01T01:42:08.349Z,10.13
2023-11-01T01:44:36.958Z,10.15
2023-11-01T01:47:06.079Z,10.14
2023-11-01T01:49:40.144Z,10.16
2023-11-01T01:52:16.159Z,10.16
2023-11-01T01:54:45.368Z,10.16
2023-11-01T01:57:13.998Z,10.18
2023-11-01T01:59:42.980Z,10.17
2023-11-01T02:02:12.374Z,10.13
2023-11-01T02:04:41.122Z,10.15
2023-11-01T02:07:11.407Z,10.15
2023-11-01T02:09:41.503Z,10.13
2023-11-01T02:12:10.543Z,10.15
2023-11-01T02:14:39.147Z,10.15
2023-11-01T02:17:08.249Z,10.12
2023-11-01T02:19:36.861Z,10.11
2023-11-01T02:22:05.656Z,10.11
2023-11-01T02:24:35.904Z,10.09
2023-11-01T02:27:06.187Z,10.08
2023-11-01T02:29:34.693Z,10.06
2023-11-01T02:32:04.270Z,10.05
2023-11-01T02:34:32.738Z,10.06
2023-11-01T02:37:01.342Z,10.06
2023-11-01T02:39:30.079Z,10.02
2023-11-01T02:42:00.769Z,10.01
2023-11-01T02:44:29.610Z,10.00
2023-11-01T02:46:58.500Z,9.99
2023-11-01T02:49:27.167Z,9.98
2023-11-01T02:51:55.715Z,9.99
2023-11-01T02:54:24.635Z,9.96
2023-11-01T02:56:53.239Z,9.94
2023-11-01T02:59:23.620Z,9.95
2023-11-01T03:01:52.289Z,9.90
2023-11-01T03:04:20.861Z,9.88
2023-11-01T03:06:50.216Z,9.84
2023-11-01T03:09:18.788Z,9.84
2023-11-01T03:11:48.947Z,9.79
2023-11-01T03:14:17.594Z,9.77
2023-11-01T03:16:47.628Z,9.75
2023-11-01T03:19:16.219Z,9.72
2023-11-01T03:21:44.798Z,9.69
2023-11-01T03:24:13.534Z,9.65
2023-11-01T03:26:43.457Z,9.59
2023-11-01T03:29:12.293Z,9.57
2023-11-01T03:31:41.015Z,9.50
2023-11-01T03:34:11.450Z,9.51
2023-11-01T03:36:40.091Z,9.46
2023-11-01T03:39:11.884Z,9.45
2023-11-01T03:41:42.121Z,9.46
2023-11-01T03:44:11.143Z,9.45
2023-11-01T03:46:39.881Z,9.44
2023-11-01T03:49:08.555Z,9.46
2023-11-01T03:51:38.524Z,9.50
2023-11-01T03:54:07.213Z,9.53
2023-11-01T03:56:35.903Z,9.54
2023-11-01T03:59:04.706Z,9.53
2023-11-01T04:01:33.584Z,9.47
2023-11-01T04:04:02.595Z,9.42
2023-11-01T04:06:31.632Z,9.42
2023-11-01T04:09:02.107Z,9.37
2023-11-01T04:11:32.013Z,9.37
2023-11-01T04:14:00.828Z,9.37
2023-11-01T04:16:30.389Z,9.36
2023-11-01T04:18:59.403Z,9.37
2023-11-01T04:21:29.864Z,9.39
2023-11-01T04:23:58.515Z,9.38
2023-11-01T04:26:28.860Z,9.37
2023-11-01T04:28:58.587Z,9.35
2023-11-01T04:31:27.439Z,9.34
2023-11-01T04:33:58.982Z,9.35
2023-11-01T04:36:27.932Z,9.35
2023-11-01T04:38:56.911Z,9.34
2023-11-01T04:41:29.728Z,9.35
2023-11-01T04:44:01.385Z,9.37
2023-11-01T04:46:30.242Z,9.34
2023-11-01T04:48:59.109Z,9.33
2023-11-01T04:51:27.826Z,9.33
2023-11-01T04:53:56.562Z,9.31
2023-11-01T04:56:25.190Z,9.32
2023-11-01T04:58:56.068Z,9.33
2023-11-01T05:01:25.519Z,9.31
2023-11-01T05:03:54.128Z,9.27
2023-11-01T05:06:22.868Z,9.25
2023-11-01T05:08:51.425Z,9.25
2023-11-01T05:11:20.173Z,9.23
2023-11-01T05:13:48.936Z,9.20
2023-11-01T05:16:19.296Z,9.18
2023-11-01T05:18:48.045Z,9.16
2023-11-01T05:21:17.026Z,9.13
2023-11-01T05:23:47.214Z,9.13
2023-11-01T05:26:17.083Z,9.12
2023-11-01T05:28:46.278Z,9.11
2023-11-01T05:31:15.137Z,9.09
2023-11-01T05:33:45.304Z,9.06
2023-11-01T05:36:15.753Z,9.07
2023-11-01T05:38:45.709Z,9.07
2023-11-01T05:41:14.429Z,9.07
2023-11-01T05:43:43.308Z,9.05
2023-11-01T05:46:12.007Z,9.04
2023-11-01T05:48:40.848Z,9.03
2023-11-01T05:51:11.155Z,9.04
2023-11-01T05:53:40.057Z,9.04
2023-11-01T05:56:10.767Z,9.03
2023-11-01T05:58:39.466Z,9.03
2023-11-01T06:01:08.943Z,9.03
2023-11-01T06:03:37.837Z,9.04
2023-11-01T06:06:07.367Z,9.02
2023-11-01T06:08:37.513Z,8.99
2023-11-01T06:11:08.848Z,9.00
2023-11-01T06:13:37.684Z,8.99
2023-11-01T06:16:09.273Z,8.99
2023-11-01T06:18:38.246Z,9.03
2023-11-01T06:21:07.547Z,9.01
2023-11-01T06:23:38.739Z,9.02
2023-11-01T06:26:07.518Z,9.01
2023-11-01T06:28:36.631Z,9.00
2023-11-01T06:31:05.912Z,9.02
2023-11-01T06:33:34.586Z,9.02
2023-11-01T06:36:03.468Z,9.00
2023-11-01T06:38:32.378Z,9.01
2023-11-01T06:41:05.209Z,9.00
2023-11-01T06:43:34.309Z,8.99
2023-11-01T06:46:02.889Z,8.98
2023-11-01T06:48:31.794Z,8.96
2023-11-01T06:51:00.640Z,8.95
2023-11-01T06:53:29.196Z,8.90
2023-11-01T06:55:57.826Z,8.86
2023-11-01T06:58:27.922Z,8.80
2023-11-01T07:00:56.561Z,8.78
2023-11-01T07:03:25.292Z,8.78
2023-11-01T07:05:53.990Z,8.75
2023-11-01T07:08:22.753Z,8.74
2023-11-01T07:10:51.538Z,8.73
2023-11-01T07:13:20.212Z,8.72
2023-11-01T07:15:50.804Z,8.71
2023-11-01T07:18:20.206Z,8.71
2023-11-01T07:20:49.335Z,8.68
2023-11-01T07:23:18.370Z,8.66
2023-11-01T07:25:47.206Z,8.64
2023-11-01T07:28:16.627Z,8.64
2023-11-01T07:30:45.373Z,8.63
2023-11-01T07:33:15.941Z,8.62
2023-11-01T07:35:44.945Z,8.61
2023-11-01T07:38:14.249Z,8.63
2023-11-01T07:40:43.195Z,8.63
2023-11-01T07:43:11.929Z,8.66
2023-11-01T07:45:40.614Z,8.64
2023-11-01T07:48:09.941Z,8.63
2023-11-01T07:50:41.819Z,8.64
2023-11-01T07:53:10.959Z,8.62
2023-11-01T07:55:39.751Z,8.60
2023-11-01T07:58:08.906Z,8.59
2023-11-01T08:00:37.631Z,8.57
2023-11-01T08:03:06.523Z,8.56
2023-11-01T08:05:35.255Z,8.55
2023-11-01T08:08:05.734Z,8.54
2023-11-01T08:10:34.337Z,8.53
2023-11-01T08:13:03.085Z,8.52
2023-11-01T08:15:34.524Z,8.53
2023-11-01T08:18:04.843Z,8.53
2023-11-01T08:20:33.770Z,8.55
2023-11-01T08:23:02.632Z,8.59
2023-11-01T08:25:34.425Z,8.62
2023-11-01T08:28:03.944Z,8.63
2023-11-01T08:30:32.576Z,8.67
2023-11-01T08:33:01.593Z,8.71
2023-11-01T08:35:33.474Z,8.71
2023-11-01T08:38:04.394Z,8.74
2023-11-01T08:40:34.394Z,8.73
2023-11-01T08:43:03.048Z,8.67
2023-11-01T08:45:31.870Z,8.67
2023-11-01T08:48:01.745Z,8.65
2023-11-01T08:50:30.504Z,8.64
2023-11-01T08:53:00.298Z,8.59
2023-11-01T08:55:28.889Z,8.61
2023-11-01T08:57:58.942Z,8.62
2023-11-01T09:00:39.200Z,8.52
2023-11-01T09:03:15.444Z,8.43
2023-11-01T09:05:44.287Z,8.36
2023-11-01T09:08:13.110Z,8.33
2023-11-01T09:10:41.860Z,8.32
2023-11-01T09:13:12.113Z,8.28
2023-11-01T09:15:44.251Z,8.26
2023-11-01T09:18:13.191Z,8.24
2023-11-01T09:20:41.973Z,8.24
2023-11-01T09:23:10.841Z,8.26
2023-11-01T09:25:39.845Z,8.23
2023-11-01T09:28:14.788Z,8.21
2023-11-01T09:30:43.611Z,8.20
2023-11-01T09:33:12.476Z,8.16
2023-11-01T09:35:41.432Z,8.15
2023-11-01T09:38:10.356Z,8.14
2023-11-01T09:40:39.120Z,8.15
2023-11-01T09:43:10.390Z,8.08
2023-11-01T09:45:41.178Z,8.11
2023-11-01T09:48:11.180Z,8.12
2023-11-01T09:50:41.592Z,8.06
2023-11-01T09:53:10.299Z,7.97
2023-11-01T09:55:38.967Z,8.01
2023-11-01T09:58:11.390Z,8.01
2023-11-01T10:00:42.306Z,7.96
2023-11-01T10:03:11.545Z,7.97
2023-11-01T10:05:40.279Z,7.93
2023-11-01T10:08:09.074Z,7.98
2023-11-01T10:10:38.078Z,8.00
2023-11-01T10:13:07.197Z,8.03
2023-11-01T10:15:35.810Z,8.02
2023-11-01T10:18:06.372Z,8.01
2023-11-01T10:20:35.358Z,7.98
2023-11-01T10:23:03.972Z,8.03
2023-11-01T10:25:32.790Z,7.91
2023-11-01T10:28:03.024Z,7.88
2023-11-01T10:30:32.147Z,7.82
2023-11-01T10:33:02.254Z,7.77
2023-11-01T10:35:36.772Z,7.74
2023-11-01T10:38:05.630Z,7.76
2023-11-01T10:40:34.391Z,7.65
2023-11-01T10:43:05.294Z,7.65
2023-11-01T10:45:35.644Z,7.59
2023-11-01T10:48:07.385Z,7.57
2023-11-01T10:50:38.587Z,7.54
2023-11-01T10:53:08.656Z,7.58
2023-11-01T10:55:38.470Z,7.49
2023-11-01T10:58:12.008Z,7.45
2023-11-01T11:00:50.106Z,7.47
2023-11-01T11:03:28.204Z,7.52
2023-11-01T11:05:59.355Z,7.54
2023-11-01T11:08:27.804Z,7.56
2023-11-01T11:11:18.417Z,7.56
2023-11-01T11:13:51.428Z,7.50
2023-11-01T11:16:22.465Z,7.48
2023-11-01T11:19:00.931Z,7.45
2023-11-01T11:22:04.900Z,7.48
2023-11-01T11:24:58.956Z,7.45
2023-11-01T11:27:55.172Z,7.47
2023-11-01T11:31:10.277Z,7.53
2023-11-01T11:33:41.410Z,7.51
2023-11-01T11:36:14.242Z,7.56
2023-11-01T11:38:55.609Z,7.52
2023-11-01T11:41:25.613Z,7.40
2023-11-01T11:44:08.623Z,7.37
2023-11-01T11:46:41.260Z,7.39
2023-11-01T11:49:10.962Z,7.38
2023-11-01T11:51:40.555Z,7.33
2023-11-01T11:54:16.145Z,7.33
2023-11-01T11:56:45.624Z,7.27
2023-11-01T11:59:22.105Z,7.25
2023-11-01T12:01:53.058Z,7.22
2023-11-01T12:04:22.195Z,7.19
2023-11-01T12:06:52.905Z,7.09
2023-11-01T12:09:27.043Z,7.13
2023-11-01T12:11:56.991Z,7.09
2023-11-01T12:14:26.651Z,7.14
2023-11-01T12:16:57.721Z,7.02
2023-11-01T12:19:26.482Z,6.98
2023-11-01T12:21:56.432Z,6.89
2023-11-01T12:24:30.227Z,6.87
2023-11-01T12:27:07.956Z,6.80
2023-11-01T12:29:42.310Z,6.77
2023-11-01T12:32:12.417Z,6.80
2023-11-01T12:34:42.349Z,6.87
2023-11-01T12:37:15.510Z,6.88
2023-11-01T12:40:05.444Z,6.89
2023-11-01T12:42:35.745Z,6.88
2023-11-01T12:45:04.959Z,6.92
2023-11-01T12:47:42.831Z,6.84
2023-11-01T12:50:13.431Z,6.85
2023-11-01T12:52:42.583Z,6.81
2023-11-01T12:55:13.386Z,6.77
2023-11-01T12:57:48.174Z,6.77
2023-11-01T13:00:18.345Z,6.72
2023-11-01T13:02:47.396Z,6.66
2023-11-01T13:05:16.925Z,6.69
2023-11-01T13:07:47.232Z,6.64
2023-11-01T13:10:18.020Z,6.59
2023-11-01T13:12:49.084Z,6.56
2023-11-01T13:15:18.592Z,6.55
2023-11-01T13:17:49.614Z,6.58
2023-11-01T13:20:18.728Z,6.56
2023-11-01T13:22:48.130Z,6.54
2023-11-01T13:25:18.298Z,6.48
2023-11-01T13:27:47.254Z,6.46
2023-11-01T13:30:15.969Z,6.44
2023-11-01T13:32:45.202Z,6.44
2023-11-01T13:35:13.968Z,6.43
2023-11-01T13:37:42.750Z,6.40
2023-11-01T13:40:13.154Z,6.35
2023-11-01T13:42:43.290Z,6.34
2023-11-01T13:45:12.504Z,6.31
2023-11-01T13:47:41.283Z,6.29
2023-11-01T13:50:11.379Z,6.21
2023-11-01T13:52:40.899Z,6.16
2023-11-01T13:55:10.931Z,6.14
2023-11-01T13:57:40.506Z,6.10
2023-11-01T14:00:12.296Z,6.10
2023-11-01T14:02:41.412Z,6.08
2023-11-01T14:05:10.429Z,6.05
2023-11-01T14:07:39.044Z,6.02
2023-11-01T14:10:08.836Z,5.95
2023-11-01T14:12:37.865Z,5.94
2023-11-01T14:15:07.814Z,5.92
2023-11-01T14:17:38.009Z,5.85
2023-11-01T14:20:10.753Z,5.81
2023-11-01T14:22:42.987Z,5.79
2023-11-01T14:25:13.715Z,5.78
2023-11-01T14:27:43.126Z,5.74
2023-11-01T14:30:12.726Z,5.70
2023-11-01T14:32:45.180Z,5.67
2023-11-01T14:35:14.689Z,5.63
2023-11-01T14:37:43.915Z,5.60
2023-11-01T14:40:13.757Z,5.56
2023-11-01T14:42:43.316Z,5.52
2023-11-01T14:45:12.735Z,5.49
2023-11-01T14:47:41.646Z,5.39
2023-11-01T14:50:12.831Z,5.39
2023-11-01T14:52:41.454Z,5.40
2023-11-01T14:55:10.519Z,5.39
2023-11-01T14:57:39.759Z,5.39
2023-11-01T15:00:09.698Z,5.36
2023-11-01T15:02:38.557Z,5.33
2023-11-01T15:05:08.056Z,5.32
2023-11-01T15:07:38.602Z,5.29
2023-11-01T15:10:08.634Z,5.29
2023-11-01T15:12:37.694Z,5.26
2023-11-01T15:15:07.388Z,5.27
2023-11-01T15:17:36.157Z,5.27
2023-11-01T15:20:05.596Z,5.27
2023-11-01T15:22:34.235Z,5.29
2023-11-01T15:25:04.270Z,5.28
2023-11-01T15:27:33.334Z,5.29
2023-11-01T15:30:01.994Z,5.26
2023-11-01T15:32:30.606Z,5.26
2023-11-01T15:34:59.254Z,5.20
2023-11-01T15:37:28.311Z,5.21
2023-11-01T15:39:56.920Z,5.18
2023-11-01T15:42:27.600Z,5.09
2023-11-01T15:44:56.586Z,5.07
2023-11-01T15:47:25.234Z,5.01
2023-11-01T15:49:53.856Z,5.01
2023-11-01T15:52:22.338Z,4.94
2023-11-01T15:54:52.635Z,4.93
2023-11-01T15:57:23.018Z,4.92
2023-11-01T15:59:54.537Z,4.91
2023-11-01T16:02:23.365Z,4.89
2023-11-01T16:04:52.177Z,4.90
2023-11-01T16:07:21.565Z,4.87
2023-11-01T16:09:50.472Z,4.84
2023-11-01T16:12:19.121Z,4.85
2023-11-01T16:14:47.764Z,4.85
2023-11-01T16:17:17.924Z,4.82
2023-11-01T16:19:47.101Z,4.82
2023-11-01T16:22:16.348Z,4.80
2023-11-01T16:24:45.161Z,4.78
2023-11-01T16:27:13.837Z,4.76
2023-11-01T16:29:42.568Z,4.74
2023-11-01T16:32:11.155Z,4.68
2023-11-01T16:34:43.617Z,4.63
2023-11-01T16:37:12.324Z,4.59
2023-11-01T16:39:41.186Z,4.52
2023-11-01T16:42:15.706Z,4.49
2023-11-01T16:44:44.890Z,4.42
2023-11-01T16:47:13.766Z,4.44
2023-11-01T16:49:45.396Z,4.39
2023-11-01T16:52:14.260Z,4.39
2023-11-01T16:54:42.874Z,4.39
2023-11-01T16:57:11.606Z,4.36
2023-11-01T16:59:40.438Z,4.32
2023-11-01T17:02:09.285Z,4.28
2023-11-01T17:04:38.198Z,4.29
2023-11-01T17:07:09.168Z,4.28
2023-11-01T17:09:37.627Z,4.24
2023-11-01T17:12:07.452Z,4.18
2023-11-01T17:14:36.393Z,4.18
2023-11-01T17:17:05.282Z,4.15
2023-11-01T17:19:33.987Z,4.15
2023-11-01T17:22:06.536Z,4.16
2023-11-01T17:24:36.695Z,4.15
2023-11-01T17:27:05.742Z,4.12
2023-11-01T17:29:35.593Z,4.12
2023-11-01T17:32:04.915Z,4.12
2023-11-01T17:34:34.488Z,4.12
2023-11-01T17:37:05.184Z,4.12
2023-11-01T17:39:40.061Z,4.08
2023-11-01T17:42:12.234Z,4.10
2023-11-01T17:44:45.649Z,4.12
2023-11-01T17:47:27.797Z,4.09
2023-11-01T17:49:58.489Z,4.11
2023-11-01T17:52:31.348Z,4.11
2023-11-01T17:55:02.514Z,4.13
2023-11-01T17:57:33.665Z,4.09
2023-11-01T18:00:03.126Z,4.06
2023-11-01T18:03:20.290Z,4.12
2023-11-01T18:05:50.092Z,4.09
2023-11-01T18:08:20.514Z,4.06
2023-11-01T18:10:52.210Z,4.04
2023-11-01T18:13:26.970Z,4.02
2023-11-01T18:15:57.619Z,4.02
2023-11-01T18:18:43.276Z,4.01
2023-11-01T18:21:16.255Z,4.01
2023-11-01T18:23:53.377Z,3.98
2023-11-01T18:26:24.554Z,3.96
2023-11-01T18:28:55.232Z,3.97
2023-11-01T18:31:26.288Z,3.97
2023-11-01T18:33:59.130Z,3.92
2023-11-01T18:36:29.714Z,3.93
2023-11-01T18:39:00.375Z,3.93
2023-11-01T18:41:35.496Z,3.95
2023-11-01T18:44:05.435Z,3.93
2023-11-01T18:46:36.187Z,3.89
2023-11-01T18:49:06.768Z,3.88
2023-11-01T18:51:57.800Z,3.87
2023-11-01T18:54:44.960Z,3.88
2023-11-01T18:57:17.993Z,3.87
2023-11-01T18:59:47.018Z,3.87
2023-11-01T19:02:51.206Z,3.85
2023-11-01T19:05:20.027Z,3.82
2023-11-01T19:07:48.976Z,3.82
2023-11-01T19:10:23.163Z,3.82
2023-11-01T19:12:56.322Z,3.72
2023-11-01T19:16:17.274Z,3.69
2023-11-01T19:18:51.557Z,3.64
2023-11-01T19:21:20.787Z,3.61
2023-11-01T19:23:50.670Z,3.59
2023-11-01T19:26:22.309Z,3.58
2023-11-01T19:28:53.264Z,3.56
2023-11-01T19:31:26.123Z,3.54
2023-11-01T19:33:55.844Z,3.51
2023-11-01T19:36:27.322Z,3.50
2023-11-01T19:38:56.586Z,3.44
2023-11-01T19:41:25.594Z,3.42
2023-11-01T19:43:59.994Z,3.45
2023-11-01T19:46:28.786Z,3.40
2023-11-01T19:48:57.447Z,3.37
2023-11-01T19:51:26.436Z,3.35
2023-11-01T19:53:55.179Z,3.35
2023-11-01T19:56:25.001Z,3.35
2023-11-01T19:58:54.354Z,3.31
2023-11-01T20:01:24.861Z,3.32
2023-11-01T20:03:53.789Z,3.30
2023-11-01T20:06:23.594Z,3.28
2023-11-01T20:08:52.419Z,3.30
2023-11-01T20:11:21.054Z,3.28
2023-11-01T20:13:49.721Z,3.26
2023-11-01T20:16:25.574Z,3.26
2023-11-01T20:19:04.587Z,3.25
2023-11-01T20:21:33.756Z,3.22
2023-11-01T20:24:02.572Z,3.22
2023-11-01T20:26:31.765Z,3.25
2023-11-01T20:29:00.927Z,3.23
2023-11-01T20:31:29.968Z,3.23
2023-11-01T20:33:59.045Z,3.22
2023-11-01T20:36:29.037Z,3.21
2023-11-01T20:38:57.851Z,3.21
2023-11-01T20:41:26.581Z,3.18
2023-11-01T20:43:55.223Z,3.19
2023-11-01T20:46:23.710Z,3.18
2023-11-01T20:48:54.288Z,3.18
2023-11-01T20:51:23.544Z,3.14
2023-11-01T20:53:55.048Z,3.14
2023-11-01T20:56:24.250Z,3.18
2023-11-01T20:58:53.228Z,3.17
2023-11-01T21:01:22.207Z,3.18
2023-11-01T21:03:51.182Z,3.18
2023-11-01T21:06:20.863Z,3.17
2023-11-01T21:08:49.489Z,3.15
2023-11-01T21:11:20.893Z,3.13
2023-11-01T21:13:52.923Z,3.08
2023-11-01T21:16:21.440Z,3.04
2023-11-01T21:18:51.007Z,3.01
2023-11-01T21:21:19.821Z,3.03
2023-11-01T21:23:48.389Z,3.03
2023-11-01T21:26:18.301Z,3.03
2023-11-01T21:28:46.941Z,3.04
2023-11-01T21:31:15.490Z,3.00
2023-11-01T21:33:47.327Z,2.95
2023-11-01T21:36:16.186Z,2.86
2023-11-01T21:38:44.936Z,2.84
2023-11-01T21:41:13.629Z,2.83
2023-11-01T21:43:53.985Z,2.85
2023-11-01T21:46:31.401Z,2.85
2023-11-01T21:49:04.626Z,2.80
2023-11-01T21:51:33.406Z,2.74
2023-11-01T21:54:03.455Z,2.70
2023-11-01T21:56:36.318Z,2.64
2023-11-01T21:59:11.350Z,2.62
2023-11-01T22:01:40.455Z,2.54
2023-11-01T22:04:21.716Z,2.45
2023-11-01T22:06:53.219Z,2.43
2023-11-01T22:09:22.593Z,2.35
2023-11-01T22:11:53.829Z,2.30
2023-11-01T22:14:39.243Z,2.30
2023-11-01T22:17:11.828Z,2.26
2023-11-01T22:19:43.006Z,2.25
2023-11-01T22:22:48.624Z,2.21
2023-11-01T22:25:29.192Z,2.18
2023-11-01T22:28:01.741Z,2.11
2023-11-01T22:30:34.503Z,2.10
2023-11-01T22:33:07.857Z,2.10
2023-11-01T22:35:41.279Z,2.05
2023-11-01T22:38:12.701Z,2.05
2023-11-01T22:40:43.404Z,2.02
2023-11-01T22:43:12.406Z,2.01
2023-11-01T22:45:43.087Z,2.02
2023-11-01T22:48:12.899Z,1.96
2023-11-01T22:50:41.586Z,1.92
2023-11-01T22:53:11.004Z,1.91
2023-11-01T22:55:42.242Z,1.96
2023-11-01T22:58:13.005Z,1.99
2023-11-01T23:00:44.229Z,1.97
2023-11-01T23:03:13.560Z,1.97
2023-11-01T23:05:42.242Z,1.94
2023-11-01T23:08:11.710Z,1.92
2023-11-01T23:10:40.397Z,1.90
2023-11-01T23:13:09.066Z,1.88
2023-11-01T23:15:37.617Z,1.87
2023-11-01T23:18:07.785Z,1.88
2023-11-01T23:20:36.283Z,1.84
2023-11-01T23:23:04.764Z,1.82
2023-11-01T23:25:35.681Z,1.81
2023-11-01T23:28:19.838Z,1.75
2023-11-01T23:30:51.746Z,1.74
2023-11-01T23:33:22.108Z,1.73
2023-11-01T23:35:51.037Z,1.70
2023-11-01T23:38:19.550Z,1.67
2023-11-01T23:40:48.885Z,1.63
2023-11-01T23:43:17.327Z,1.61
2023-11-01T23:46:14.530Z,1.61
2023-11-01T23:48:45.793Z,1.61
2023-11-01T23:51:14.208Z,1.57
2023-11-01T23:53:42.828Z,1.54
2023-11-01T23:56:25.461Z,1.50
2023-11-01T23:58:55.454Z,1.48
